createdAt,value
2019-05-03T00:01:07.849Z,0.03
2019-05-03T00:03:35.964Z,0.20
2019-05-03T00:06:06.997Z,0.37
2019-05-03T00:08:35.239Z,0.00
2019-05-03T00:11:03.511Z,0.10
2019-05-03T00:13:32.515Z,0.00
2019-05-03T00:16:08.470Z,0.03
2019-05-03T00:18:36.580Z,0.60
2019-05-03T00:21:04.680Z,0.13
2019-05-03T00:23:32.826Z,0.00
2019-05-03T00:26:02.655Z,0.10
2019-05-03T00:28:32.222Z,0.10
2019-05-03T00:31:01.952Z,0.10
2019-05-03T00:33:31.772Z,0.23
2019-05-03T00:36:07.595Z,0.20
2019-05-03T00:38:35.769Z,0.13
2019-05-03T00:41:04.232Z,0.10
2019-05-03T00:43:32.441Z,0.37
2019-05-03T00:46:02.043Z,0.00
2019-05-03T00:48:32.479Z,0.10
2019-05-03T00:51:02.268Z,0.00
2019-05-03T00:53:31.625Z,0.20
2019-05-03T00:56:01.581Z,0.00
2019-05-03T00:58:31.700Z,0.10
2019-05-03T01:00:59.817Z,0.07
2019-05-03T01:03:27.958Z,0.07
2019-05-03T01:05:56.157Z,0.07
2019-05-03T01:08:24.297Z,0.00
2019-05-03T01:10:52.417Z,0.10
2019-05-03T01:13:21.816Z,0.33
2019-05-03T01:15:52.020Z,0.10
2019-05-03T01:18:21.831Z,0.10
2019-05-03T01:20:51.830Z,0.00
2019-05-03T01:23:21.824Z,0.00
2019-05-03T01:25:56.496Z,0.00
2019-05-03T01:28:24.637Z,0.00
2019-05-03T01:30:52.769Z,0.00
2019-05-03T01:33:22.627Z,0.07
2019-05-03T01:35:51.916Z,0.00
2019-05-03T01:38:22.489Z,0.00
2019-05-03T01:40:52.086Z,0.10
2019-05-03T01:43:21.872Z,0.10
2019-05-03T01:45:51.756Z,0.10
2019-05-03T01:48:32.637Z,0.03
2019-05-03T01:51:05.310Z,0.00
2019-05-03T01:53:35.098Z,0.17
2019-05-03T01:56:03.722Z,0.00
2019-05-03T01:58:32.310Z,0.20
2019-05-03T02:01:02.852Z,0.00
2019-05-03T02:03:32.704Z,0.10
2019-05-03T02:06:02.383Z,0.23
2019-05-03T02:08:32.505Z,0.00
2019-05-03T02:11:02.214Z,0.10
2019-05-03T02:13:32.127Z,0.00
2019-05-03T02:16:02.167Z,0.17
2019-05-03T02:18:31.841Z,0.10
2019-05-03T02:21:01.650Z,0.10
2019-05-03T02:23:31.883Z,0.17
2019-05-03T02:25:59.811Z,0.10
2019-05-03T02:28:28.039Z,0.00
2019-05-03T02:30:56.158Z,0.10
2019-05-03T02:33:24.326Z,0.10
2019-05-03T02:35:53.313Z,0.10
2019-05-03T02:38:23.396Z,0.10
2019-05-03T02:40:53.233Z,0.10
2019-05-03T02:43:25.975Z,0.10
2019-05-03T02:46:10.151Z,0.10
2019-05-03T02:48:39.957Z,0.13
2019-05-03T02:51:08.149Z,0.10
2019-05-03T02:53:36.293Z,0.00
2019-05-03T02:56:15.002Z,0.40
2019-05-03T02:58:35.832Z,0.00
2019-05-03T03:01:06.575Z,0.10
2019-05-03T03:03:36.566Z,0.10
2019-05-03T03:06:06.757Z,0.57
2019-05-03T03:08:36.862Z,0.20
2019-05-03T03:11:06.610Z,0.10
2019-05-03T03:13:37.485Z,0.10
2019-05-03T03:16:07.062Z,0.10
2019-05-03T03:18:37.689Z,0.20
2019-05-03T03:21:08.107Z,0.10
2019-05-03T03:23:37.865Z,0.27
2019-05-03T03:26:06.332Z,0.00
2019-05-03T03:28:36.597Z,0.00
2019-05-03T03:31:09.011Z,0.23
2019-05-03T03:33:40.203Z,0.10
2019-05-03T03:36:31.825Z,0.10
2019-05-03T03:38:36.664Z,0.23
2019-05-03T03:41:05.873Z,0.33
2019-05-03T03:43:35.473Z,0.10
2019-05-03T03:46:05.410Z,0.10
2019-05-03T03:48:35.474Z,0.10
2019-05-03T03:51:05.167Z,0.10
2019-05-03T03:53:35.627Z,0.10
2019-05-03T03:56:05.568Z,0.20
2019-05-03T03:58:35.954Z,0.00
2019-05-03T04:01:06.095Z,0.10
2019-05-03T04:03:36.228Z,0.10
2019-05-03T04:06:05.817Z,0.10
2019-05-03T04:08:36.108Z,1.13
2019-05-03T04:11:06.041Z,0.00
2019-05-03T04:13:35.989Z,0.10
2019-05-03T04:16:11.235Z,0.00
2019-05-03T04:18:57.668Z,1.27
2019-05-03T04:21:26.660Z,0.07
2019-05-03T04:23:55.655Z,0.10
2019-05-03T04:26:29.524Z,0.10
2019-05-03T04:28:56.058Z,0.10
2019-05-03T04:31:26.126Z,0.10
2019-05-03T04:33:56.244Z,0.27
2019-05-03T04:36:25.997Z,0.00
2019-05-03T04:38:56.234Z,0.77
2019-05-03T04:41:26.625Z,0.10
2019-05-03T04:43:55.394Z,0.00
2019-05-03T04:46:25.942Z,0.10
2019-05-03T04:48:56.141Z,0.30
2019-05-03T04:51:25.904Z,0.73
2019-05-03T04:53:55.838Z,0.10
2019-05-03T04:56:25.930Z,0.20
2019-05-03T04:58:55.953Z,0.10
2019-05-03T05:01:25.932Z,0.23
2019-05-03T05:03:55.771Z,0.20
2019-05-03T05:06:25.596Z,0.67
2019-05-03T05:08:55.114Z,0.10
2019-05-03T05:11:26.089Z,0.27
2019-05-03T05:13:53.027Z,0.10
2019-05-03T05:16:21.266Z,0.50
2019-05-03T05:18:51.089Z,0.20
2019-05-03T05:21:20.848Z,0.97
2019-05-03T05:23:59.321Z,0.10
2019-05-03T05:26:29.252Z,0.03
2019-05-03T05:28:58.996Z,0.00
2019-05-03T05:31:27.167Z,0.10
2019-05-03T05:33:55.309Z,0.10
2019-05-03T05:36:24.381Z,0.10
2019-05-03T05:38:52.749Z,0.10
2019-05-03T05:41:20.908Z,0.10
2019-05-03T05:43:48.992Z,0.10
2019-05-03T05:46:17.809Z,0.23
2019-05-03T05:48:47.574Z,0.00
2019-05-03T05:51:16.119Z,0.10
2019-05-03T05:53:44.822Z,0.10
2019-05-03T05:56:25.047Z,0.10
2019-05-03T05:58:55.391Z,0.10
2019-05-03T06:01:25.313Z,0.10
2019-05-03T06:03:55.093Z,0.10
2019-05-03T06:06:25.170Z,0.10
2019-05-03T06:09:05.103Z,1.60
2019-05-03T06:11:35.039Z,0.10
2019-05-03T06:14:15.312Z,0.03
2019-05-03T06:16:45.241Z,0.07
2019-05-03T06:19:17.489Z,0.30
2019-05-03T06:24:29.152Z,0.10
2019-05-03T06:26:58.909Z,0.07
2019-05-03T06:29:27.046Z,0.00
2019-05-03T06:32:02.596Z,0.10
2019-05-03T06:34:30.729Z,0.10
2019-05-03T06:37:04.498Z,0.10
2019-05-03T06:39:35.058Z,0.13
2019-05-03T06:42:02.724Z,0.10
2019-05-03T06:44:30.900Z,0.33
2019-05-03T06:47:01.033Z,0.13
2019-05-03T06:49:28.873Z,0.10
2019-05-03T06:51:57.002Z,0.10
2019-05-03T06:54:28.262Z,0.10
2019-05-03T06:56:55.534Z,0.20
2019-05-03T06:59:37.543Z,0.40
2019-05-03T07:02:19.088Z,0.37
2019-05-03T07:05:00.834Z,3.80
2019-05-03T07:07:40.017Z,4.10
2019-05-03T07:10:14.898Z,2.33
2019-05-03T07:13:02.409Z,1.40
2019-05-03T07:15:30.615Z,0.30
2019-05-03T07:17:58.762Z,0.17
2019-05-03T07:20:26.983Z,0.77
2019-05-03T07:22:55.905Z,0.10
2019-05-03T07:25:25.576Z,0.20
2019-05-03T07:27:55.496Z,0.10
2019-05-03T07:30:24.780Z,0.67
2019-05-03T07:32:54.877Z,0.10
2019-05-03T07:35:24.993Z,0.03
2019-05-03T07:37:55.063Z,1.03
2019-05-03T07:40:25.059Z,1.57
2019-05-03T07:42:52.828Z,0.97
2019-05-03T07:45:20.987Z,0.43
2019-05-03T07:47:49.205Z,0.37
2019-05-03T07:50:17.312Z,0.40
2019-05-03T07:52:45.458Z,0.27
2019-05-03T07:55:14.933Z,0.30
2019-05-03T07:57:47.750Z,0.20
2019-05-03T08:00:17.697Z,0.40
2019-05-03T08:02:45.833Z,0.20
2019-05-03T08:05:15.542Z,0.60
2019-05-03T08:07:44.482Z,0.37
2019-05-03T08:10:15.269Z,0.20
2019-05-03T08:12:45.210Z,0.10
2019-05-03T08:15:15.594Z,0.00
2019-05-03T08:17:44.935Z,0.20
2019-05-03T08:20:14.401Z,0.10
2019-05-03T08:22:44.714Z,0.10
2019-05-03T08:25:14.547Z,0.10
2019-05-03T08:27:44.521Z,0.10
2019-05-03T08:30:14.777Z,0.10
2019-05-03T08:32:59.711Z,0.20
2019-05-03T08:35:32.204Z,0.40
2019-05-03T08:38:01.628Z,0.10
2019-05-03T08:40:31.419Z,0.10
2019-05-03T08:42:59.557Z,0.10
2019-05-03T08:45:27.773Z,0.10
2019-05-03T08:47:55.892Z,0.20
2019-05-03T08:50:25.655Z,0.10
2019-05-03T08:52:55.710Z,0.30
2019-05-03T08:55:25.007Z,0.63
2019-05-03T08:57:55.164Z,0.10
2019-05-03T09:00:24.975Z,0.10
2019-05-03T09:02:54.884Z,0.17
2019-05-03T09:05:25.021Z,0.40
2019-05-03T09:07:54.915Z,0.10
2019-05-03T09:10:27.347Z,0.30
2019-05-03T09:13:06.569Z,0.20
2019-05-03T09:15:35.701Z,0.20
2019-05-03T09:18:04.818Z,0.20
2019-05-03T09:20:35.422Z,0.00
2019-05-03T09:23:05.305Z,0.10
2019-05-03T09:25:35.510Z,0.67
2019-05-03T09:28:04.706Z,0.20
2019-05-03T09:30:33.073Z,0.10
2019-05-03T09:33:01.289Z,0.00
2019-05-03T09:35:33.017Z,0.10
2019-05-03T09:37:59.331Z,0.20
2019-05-03T09:40:27.462Z,0.17
2019-05-03T09:42:55.593Z,0.30
2019-05-03T09:45:24.617Z,0.60
2019-05-03T09:47:55.036Z,0.10
2019-05-03T09:50:24.574Z,0.10
2019-05-03T09:52:55.249Z,0.10
2019-05-03T09:55:26.786Z,0.20
2019-05-03T09:57:55.561Z,0.10
2019-05-03T10:00:24.535Z,0.10
2019-05-03T10:02:54.675Z,0.20
2019-05-03T10:05:25.034Z,2.00
2019-05-03T10:07:52.568Z,0.10
2019-05-03T10:10:20.689Z,0.10
2019-05-03T10:12:48.838Z,0.10
2019-05-03T10:15:18.535Z,0.10
2019-05-03T10:17:48.368Z,0.10
2019-05-03T10:20:17.573Z,0.30
2019-05-03T10:22:45.693Z,0.10
2019-05-03T10:25:14.087Z,0.10
2019-05-03T10:27:45.712Z,0.10
2019-05-03T10:30:17.572Z,0.23
2019-05-03T10:32:47.606Z,0.00
2019-05-03T10:35:16.413Z,0.20
2019-05-03T10:37:45.345Z,0.97
2019-05-03T10:40:15.194Z,0.10
2019-05-03T10:42:44.500Z,0.60
2019-05-03T10:45:15.720Z,0.20
2019-05-03T10:47:45.605Z,0.10
2019-05-03T10:50:15.468Z,0.10
2019-05-03T10:52:45.190Z,0.50
2019-05-03T10:55:15.724Z,0.43
2019-05-03T10:57:45.033Z,0.10
2019-05-03T11:00:41.690Z,0.10
2019-05-03T11:02:47.169Z,0.17
2019-05-03T11:05:15.442Z,0.00
2019-05-03T11:07:45.159Z,0.30
2019-05-03T11:10:14.722Z,0.27
2019-05-03T11:12:43.023Z,0.13
2019-05-03T11:15:11.296Z,0.43
2019-05-03T11:17:39.451Z,0.10
2019-05-03T11:20:07.946Z,0.10
2019-05-03T11:22:36.123Z,0.20
2019-05-03T11:25:05.443Z,0.50
2019-05-03T11:27:35.411Z,0.10
2019-05-03T11:30:05.261Z,0.10
2019-05-03T11:32:35.350Z,0.20
2019-05-03T11:35:11.922Z,0.07
2019-05-03T11:37:50.821Z,0.70
2019-05-03T11:40:19.106Z,0.30
2019-05-03T11:42:47.540Z,0.10
2019-05-03T11:45:16.049Z,0.10
2019-05-03T11:48:08.888Z,0.10
2019-05-03T11:50:37.029Z,0.30
2019-05-03T11:53:05.300Z,0.10
2019-05-03T11:55:35.261Z,0.10
2019-05-03T11:58:05.594Z,0.10
2019-05-03T12:00:35.593Z,0.40
2019-05-03T12:03:15.530Z,0.37
2019-05-03T12:05:45.518Z,0.10
2019-05-03T12:08:34.595Z,0.00
2019-05-03T12:11:02.902Z,0.13
2019-05-03T12:13:31.531Z,0.10
2019-05-03T12:16:00.443Z,0.20
2019-05-03T12:18:29.124Z,0.10
2019-05-03T12:20:58.868Z,0.10
2019-05-03T12:23:29.454Z,0.03
2019-05-03T12:25:57.817Z,0.00
2019-05-03T12:28:26.458Z,0.10
2019-05-03T12:30:54.568Z,0.20
2019-05-03T12:33:22.666Z,0.30
2019-05-03T12:35:50.811Z,0.00
2019-05-03T12:38:18.985Z,0.20
2019-05-03T12:40:47.152Z,0.00
2019-05-03T12:43:15.315Z,0.10
2019-05-03T12:45:43.446Z,0.10
2019-05-03T12:48:11.561Z,0.10
2019-05-03T12:50:40.011Z,0.10
2019-05-03T12:53:08.297Z,0.10
2019-05-03T12:55:36.490Z,0.10
2019-05-03T12:58:06.375Z,0.10
2019-05-03T13:00:52.603Z,0.40
2019-05-03T13:03:25.131Z,0.40
2019-05-03T13:05:55.470Z,0.10
2019-05-03T13:08:30.833Z,0.00
2019-05-03T13:10:58.939Z,0.10
2019-05-03T13:13:27.089Z,0.30
2019-05-03T13:15:55.242Z,0.10
2019-05-03T13:18:25.234Z,0.10
2019-05-03T13:20:53.194Z,0.20
2019-05-03T13:23:21.359Z,0.10
2019-05-03T13:25:49.543Z,0.10
2019-05-03T13:28:17.646Z,0.10
2019-05-03T13:30:45.859Z,0.10
2019-05-03T13:33:15.158Z,0.30
2019-05-03T13:35:44.588Z,0.00
2019-05-03T13:38:13.008Z,0.10
2019-05-03T13:40:41.140Z,0.40
2019-05-03T13:43:09.254Z,0.10
2019-05-03T13:45:37.536Z,0.10
2019-05-03T13:48:05.695Z,0.10
2019-05-03T13:50:35.172Z,0.10
2019-05-03T13:53:04.837Z,0.67
2019-05-03T13:55:35.142Z,0.73
2019-05-03T13:58:05.090Z,0.20
2019-05-03T14:00:34.599Z,0.10
2019-05-03T14:03:04.541Z,0.10
2019-05-03T14:05:35.051Z,0.20
2019-05-03T14:08:05.023Z,0.10
2019-05-03T14:10:32.647Z,0.30
2019-05-03T14:13:00.860Z,0.20
2019-05-03T14:15:28.962Z,0.10
2019-05-03T14:17:57.087Z,0.20
2019-05-03T14:20:26.842Z,0.13
2019-05-03T14:22:54.971Z,0.10
2019-05-03T14:25:24.693Z,0.10
2019-05-03T14:27:54.829Z,0.70
2019-05-03T14:30:25.155Z,0.33
2019-05-03T14:32:52.749Z,0.20
2019-05-03T14:35:20.880Z,0.10
2019-05-03T14:37:48.988Z,0.10
2019-05-03T14:40:17.120Z,0.10
2019-05-03T14:42:45.292Z,0.30
2019-05-03T14:45:15.056Z,0.10
2019-05-03T14:47:43.407Z,1.03
2019-05-03T14:50:11.816Z,0.10
2019-05-03T14:52:39.975Z,0.10
2019-05-03T14:55:14.585Z,0.10
2019-05-03T14:57:44.514Z,0.07
2019-05-03T15:00:19.858Z,0.20
2019-05-03T15:02:51.113Z,0.20
2019-05-03T15:05:19.547Z,0.00
2019-05-03T15:07:47.677Z,0.10
2019-05-03T15:10:15.784Z,0.20
2019-05-03T15:12:45.165Z,0.57
2019-05-03T15:15:16.893Z,2.20
2019-05-03T15:17:45.778Z,2.63
2019-05-03T15:20:14.852Z,3.87
2019-05-03T15:22:45.295Z,5.53
2019-05-03T15:25:13.215Z,2.30
2019-05-03T15:27:41.343Z,0.73
2019-05-03T15:30:09.756Z,0.30
2019-05-03T15:32:37.860Z,0.20
2019-05-03T15:35:09.248Z,0.30
2019-05-03T15:37:37.384Z,0.30
2019-05-03T15:40:06.394Z,0.30
2019-05-03T15:42:34.700Z,0.10
2019-05-03T15:45:10.417Z,0.00
2019-05-03T15:47:40.229Z,0.00
2019-05-03T15:50:08.342Z,0.10
2019-05-03T15:52:36.515Z,0.10
2019-05-03T15:55:06.122Z,0.10
2019-05-03T15:57:35.737Z,0.20
2019-05-03T16:00:06.230Z,0.07
2019-05-03T16:02:35.162Z,0.10
2019-05-03T16:05:04.852Z,0.40
2019-05-03T16:07:33.142Z,0.10
2019-05-03T16:10:01.285Z,0.10
2019-05-03T16:12:29.439Z,0.30
2019-05-03T16:14:57.555Z,0.00
2019-05-03T16:17:25.704Z,0.10
2019-05-03T16:19:55.713Z,0.20
2019-05-03T16:22:24.900Z,0.10
2019-05-03T16:24:55.231Z,0.10
2019-05-03T16:27:27.796Z,0.10
2019-05-03T16:29:55.913Z,0.10
2019-05-03T16:32:24.056Z,0.20
2019-05-03T16:34:52.205Z,0.10
2019-05-03T16:37:20.309Z,0.77
2019-05-03T16:40:07.773Z,0.33
2019-05-03T16:42:35.951Z,0.27
2019-05-03T16:45:05.614Z,0.30
2019-05-03T16:47:35.443Z,0.10
2019-05-03T16:50:06.455Z,0.00
2019-05-03T16:52:35.007Z,0.30
2019-05-03T16:55:03.676Z,0.10
2019-05-03T16:57:31.849Z,0.00
2019-05-03T17:00:00.070Z,0.20
2019-05-03T17:02:28.220Z,0.10
2019-05-03T17:05:00.834Z,0.00
2019-05-03T17:07:38.629Z,0.00
2019-05-03T17:10:08.560Z,0.10
2019-05-03T17:12:38.180Z,0.30
2019-05-03T17:15:07.704Z,0.33
2019-05-03T17:17:35.822Z,0.30
2019-05-03T17:20:05.238Z,0.30
2019-05-03T17:22:34.475Z,0.10
2019-05-03T17:25:04.260Z,0.10
2019-05-03T17:27:34.340Z,0.13
2019-05-03T17:30:04.606Z,0.47
2019-05-03T17:32:34.992Z,0.30
2019-05-03T17:35:03.004Z,0.10
2019-05-03T17:37:31.119Z,0.10
2019-05-03T17:40:05.399Z,0.00
2019-05-03T17:42:51.728Z,0.33
2019-05-03T17:45:21.570Z,0.00
2019-05-03T17:47:49.697Z,0.20
2019-05-03T17:50:17.817Z,0.00
2019-05-03T17:53:05.793Z,0.10
2019-05-03T17:55:38.329Z,0.10
2019-05-03T17:58:08.185Z,0.10
2019-05-03T18:00:38.029Z,0.00
2019-05-03T18:03:07.597Z,0.30
2019-05-03T18:05:37.452Z,0.07
2019-05-03T18:08:09.875Z,0.10
2019-05-03T18:10:39.686Z,0.17
2019-05-03T18:13:07.789Z,0.57
2019-05-03T18:15:35.976Z,0.10
2019-05-03T18:18:05.291Z,0.00
2019-05-03T18:20:34.569Z,0.00
2019-05-03T18:23:04.966Z,0.70
2019-05-03T18:25:32.789Z,0.30
2019-05-03T18:28:00.953Z,0.97
2019-05-03T18:30:29.166Z,0.47
2019-05-03T18:32:57.306Z,0.63
2019-05-03T18:35:25.738Z,0.27
2019-05-03T18:37:57.967Z,0.10
2019-05-03T18:40:26.430Z,0.03
2019-05-03T18:42:56.249Z,0.40
2019-05-03T18:45:25.983Z,0.20
2019-05-03T18:47:54.464Z,0.27
2019-05-03T18:50:22.767Z,0.10
2019-05-03T18:52:50.897Z,0.30
2019-05-03T18:55:20.376Z,0.10
2019-05-03T18:57:48.585Z,0.40
2019-05-03T19:00:18.649Z,0.10
2019-05-03T19:02:47.738Z,0.00
2019-05-03T19:05:17.573Z,0.10
2019-05-03T19:08:04.548Z,0.10
2019-05-03T19:10:37.122Z,0.10
2019-05-03T19:13:06.916Z,0.20
2019-05-03T19:15:35.077Z,0.10
2019-05-03T19:18:10.660Z,0.30
2019-05-03T19:20:38.768Z,0.20
2019-05-03T19:23:06.941Z,0.10
2019-05-03T19:25:46.281Z,0.20
2019-05-03T19:28:07.842Z,0.10
2019-05-03T19:30:36.639Z,0.10
2019-05-03T19:33:04.765Z,0.00
2019-05-03T19:35:32.959Z,0.10
2019-05-03T19:38:01.097Z,0.03
2019-05-03T19:40:29.289Z,0.20
2019-05-03T19:42:57.429Z,0.03
2019-05-03T19:45:25.568Z,0.77
2019-05-03T19:47:55.200Z,0.30
2019-05-03T19:50:24.848Z,0.10
2019-05-03T19:53:01.775Z,0.00
2019-05-03T19:55:29.871Z,0.27
2019-05-03T19:57:57.987Z,0.10
2019-05-03T20:00:27.728Z,0.20
2019-05-03T20:03:04.944Z,0.10
2019-05-03T20:05:37.670Z,0.10
2019-05-03T20:08:25.796Z,0.60
2019-05-03T20:10:55.547Z,0.17
2019-05-03T20:13:32.687Z,0.10
2019-05-03T20:15:55.204Z,0.10
2019-05-03T20:18:23.370Z,0.10
2019-05-03T20:20:51.565Z,0.10
2019-05-03T20:23:19.706Z,0.40
2019-05-03T20:25:47.915Z,0.30
2019-05-03T20:28:16.109Z,0.10
2019-05-03T20:30:45.257Z,0.10
2019-05-03T20:33:13.528Z,0.03
2019-05-03T20:35:41.671Z,0.20
2019-05-03T20:38:09.767Z,0.10
2019-05-03T20:40:37.886Z,0.10
2019-05-03T20:43:07.625Z,0.20
2019-05-03T20:45:37.437Z,0.10
2019-05-03T20:48:07.195Z,0.10
2019-05-03T20:50:35.357Z,0.10
2019-05-03T20:53:05.231Z,0.20
2019-05-03T20:55:34.708Z,0.30
2019-05-03T20:58:03.066Z,0.40
2019-05-03T21:00:31.215Z,0.30
2019-05-03T21:02:59.393Z,0.10
2019-05-03T21:05:31.779Z,0.17
2019-05-03T21:07:57.485Z,0.10
2019-05-03T21:10:25.687Z,0.30
2019-05-03T21:12:54.463Z,0.23
2019-05-03T21:15:27.563Z,0.10
2019-05-03T21:18:00.037Z,0.20
2019-05-03T21:20:47.547Z,0.10
2019-05-03T21:26:13.655Z,0.53
2019-05-03T21:28:40.533Z,0.30
2019-05-03T21:31:28.010Z,0.20
2019-05-03T21:33:56.223Z,0.10
2019-05-03T21:36:25.468Z,0.00
2019-05-03T21:38:54.838Z,0.30
2019-05-03T21:41:24.646Z,0.50
2019-05-03T21:43:54.556Z,0.03
2019-05-03T21:46:36.512Z,0.20
2019-05-03T21:49:09.271Z,0.10
2019-05-03T21:51:37.379Z,0.50
2019-05-03T21:54:06.896Z,0.63
2019-05-03T21:56:35.725Z,0.10
2019-05-03T21:59:05.582Z,0.00
2019-05-03T22:01:37.517Z,0.23
2019-05-03T22:04:04.973Z,0.10
2019-05-03T22:06:34.938Z,0.97
2019-05-03T22:09:04.583Z,0.10
2019-05-03T22:11:32.920Z,0.10
2019-05-03T22:14:04.535Z,0.20
2019-05-03T22:16:49.236Z,0.40
2019-05-03T22:19:19.440Z,0.00
2019-05-03T22:21:55.294Z,0.03
2019-05-03T22:24:28.238Z,0.10
2019-05-03T22:26:57.976Z,0.10
2019-05-03T22:29:26.090Z,0.60
2019-05-03T22:31:54.825Z,0.20
2019-05-03T22:34:25.455Z,0.00
2019-05-03T22:37:14.234Z,0.13
2019-05-03T22:39:42.229Z,0.20
2019-05-03T22:42:29.721Z,0.40
2019-05-03T22:44:57.880Z,0.10
2019-05-03T22:47:26.069Z,0.17
2019-05-03T22:49:54.848Z,0.37
2019-05-03T22:52:23.148Z,0.07
2019-05-03T22:54:51.302Z,0.20
2019-05-03T22:57:19.467Z,0.10
2019-05-03T22:59:47.631Z,1.00
2019-05-03T23:02:17.232Z,0.20
2019-05-03T23:04:45.432Z,0.10
2019-05-03T23:07:14.899Z,0.20
2019-05-03T23:09:44.647Z,0.50
2019-05-03T23:12:13.021Z,0.40
2019-05-03T23:14:41.175Z,0.30
2019-05-03T23:17:15.206Z,0.53
2019-05-03T23:19:45.089Z,0.10
2019-05-03T23:22:22.106Z,0.50
2019-05-03T23:24:50.311Z,0.53
2019-05-03T23:27:18.408Z,0.23
2019-05-03T23:29:46.586Z,0.10
2019-05-03T23:32:15.177Z,0.20
2019-05-03T23:34:43.584Z,0.30
2019-05-03T23:37:11.708Z,0.20
2019-05-03T23:39:39.826Z,0.20
2019-05-03T23:42:08.721Z,0.47
2019-05-03T23:44:36.986Z,0.10
2019-05-03T23:47:14.446Z,0.20
2019-05-03T23:49:44.486Z,0.40
2019-05-03T23:52:25.968Z,0.27
2019-05-03T23:54:56.138Z,0.10
2019-05-03T23:57:25.166Z,0.10
2019-05-03T23:59:55.012Z,0.60
